Time,TemperatureF,DewpointF,PressureIn,WindDirection,WindDirectionDegrees,WindSpeedMPH,WindSpeedGustMPH,Humidity,HourlyPrecipIn,Conditions,Clouds,dailyrainin,SolarRadiationWatts/m^2,SoftwareType,DateUTC
2013-01-15 00:02:00,7.0,-1.0,-100.00,SSW,209,5.0,10.0,70,0.00,,,0.00,0.000000,,2013-01-15 06:02:00,
2013-01-15 00:33:00,7.0,0.0,-100.00,SSW,201,4.0,9.0,72,0.00,,,0.00,0.000000,,2013-01-15 06:33:00,
2013-01-15 00:43:00,7.0,0.0,-100.00,SSW,201,4.0,9.0,72,0.00,,,0.00,0.000000,,2013-01-15 06:43:00,
2013-01-15 00:53:00,7.0,0.0,-100.00,SSW,201,4.0,9.0,72,0.00,,,0.00,0.000000,,2013-01-15 06:53:00,
2013-01-15 01:02:00,7.0,0.0,-100.00,SSW,201,4.0,9.0,72,0.00,,,0.00,0.000000,,2013-01-15 07:02:00,
2013-01-15 01:33:00,7.0,0.0,-100.00,SSW,201,4.0,8.0,73,0.00,,,0.00,0.000000,,2013-01-15 07:33:00,
2013-01-15 01:43:00,7.0,0.0,-100.00,SSW,201,4.0,8.0,73,0.00,,,0.00,0.000000,,2013-01-15 07:43:00,
2013-01-15 01:53:00,7.0,0.0,-100.00,SSW,201,4.0,8.0,73,0.00,,,0.00,0.000000,,2013-01-15 07:53:00,
2013-01-15 02:02:00,7.0,0.0,-100.00,SSW,201,4.0,8.0,73,0.00,,,0.00,0.000000,,2013-01-15 08:02:00,
2013-01-15 02:33:00,6.0,0.0,-100.00,SSW,203,3.0,6.0,76,0.00,,,0.00,0.000000,,2013-01-15 08:33:00,
2013-01-15 02:43:00,6.0,0.0,-100.00,SSW,203,3.0,6.0,76,0.00,,,0.00,0.000000,,2013-01-15 08:43:00,
2013-01-15 02:53:00,6.0,0.0,-100.00,SSW,203,3.0,6.0,76,0.00,,,0.00,0.000000,,2013-01-15 08:53:00,
2013-01-15 03:02:00,6.0,0.0,-100.00,SSW,203,3.0,6.0,76,0.00,,,0.00,0.000000,,2013-01-15 09:02:00,
2013-01-15 03:33:00,7.0,1.0,-100.00,SW,222,3.0,7.0,77,0.00,,,0.00,0.000000,,2013-01-15 09:33:00,
2013-01-15 03:42:00,7.0,1.0,-100.00,SW,222,3.0,7.0,77,0.00,,,0.00,0.000000,,2013-01-15 09:42:00,
2013-01-15 03:52:00,7.0,1.0,-100.00,SW,222,3.0,7.0,77,0.00,,,0.00,0.000000,,2013-01-15 09:52:00,
2013-01-15 04:02:00,7.0,1.0,-100.00,SW,222,3.0,7.0,77,0.00,,,0.00,0.000000,,2013-01-15 10:02:00,
2013-01-15 04:33:00,8.0,2.0,-100.00,SW,233,5.0,12.0,76,0.00,,,0.00,0.000000,,2013-01-15 10:33:00,
2013-01-15 04:42:00,8.0,2.0,-100.00,SW,233,5.0,12.0,76,0.00,,,0.00,0.000000,,2013-01-15 10:42:00,
2013-01-15 04:52:00,8.0,2.0,-100.00,SW,233,5.0,12.0,76,0.00,,,0.00,0.000000,,2013-01-15 10:52:00,
2013-01-15 05:02:00,8.0,2.0,-100.00,SW,233,5.0,12.0,76,0.00,,,0.00,0.000000,,2013-01-15 11:02:00,
2013-01-15 05:33:00,6.0,1.0,-100.00,SW,227,3.0,10.0,78,0.00,,,0.00,0.000000,,2013-01-15 11:33:00,
2013-01-15 05:43:00,6.0,1.0,-100.00,SW,227,3.0,10.0,78,0.00,,,0.00,0.000000,,2013-01-15 11:43:00,
2013-01-15 05:53:00,6.0,1.0,-100.00,SW,227,3.0,10.0,78,0.00,,,0.00,0.000000,,2013-01-15 11:53:00,
2013-01-15 06:03:00,6.0,1.0,-100.00,SW,227,3.0,10.0,78,0.00,,,0.00,0.000000,,2013-01-15 12:03:00,
2013-01-15 06:33:00,2.0,-3.0,-100.00,SE,141,2.0,5.0,79,0.00,,,0.00,0.000000,,2013-01-15 12:33:00,
2013-01-15 06:43:00,2.0,-3.0,-100.00,SE,141,2.0,5.0,79,0.00,,,0.00,0.000000,,2013-01-15 12:43:00,
2013-01-15 06:53:00,2.0,-3.0,-100.00,SE,141,2.0,5.0,79,0.00,,,0.00,0.000000,,2013-01-15 12:53:00,
2013-01-15 07:03:00,2.0,-3.0,-100.00,SE,141,2.0,5.0,79,0.00,,,0.00,0.000000,,2013-01-15 13:03:00,
2013-01-15 07:33:00,5.0,0.0,-100.00,SSE,165,3.0,6.0,81,0.00,,,0.00,0.000000,,2013-01-15 13:33:00,
2013-01-15 07:43:00,5.0,0.0,-100.00,SSE,165,3.0,6.0,81,0.00,,,0.00,0.000000,,2013-01-15 13:43:00,
2013-01-15 07:53:00,5.0,0.0,-100.00,SSE,165,3.0,6.0,81,0.00,,,0.00,0.000000,,2013-01-15 13:53:00,
2013-01-15 08:02:00,5.0,0.0,-100.00,SSE,165,3.0,6.0,81,0.00,,,0.00,0.000000,,2013-01-15 14:02:00,
2013-01-15 08:33:00,6.0,1.0,-100.00,South,178,4.0,7.0,81,0.00,,,0.00,1.000000,,2013-01-15 14:33:00,
2013-01-15 08:43:00,6.0,1.0,-100.00,South,178,4.0,7.0,81,0.00,,,0.00,1.000000,,2013-01-15 14:43:00,
2013-01-15 08:53:00,6.0,1.0,-100.00,South,178,4.0,7.0,81,0.00,,,0.00,1.000000,,2013-01-15 14:53:00,
2013-01-15 09:03:00,6.0,1.0,-100.00,South,178,4.0,7.0,81,0.00,,,0.00,1.000000,,2013-01-15 15:03:00,
2013-01-15 09:33:00,8.0,3.0,-100.00,South,179,7.0,12.0,79,0.00,,,0.00,37.000000,,2013-01-15 15:33:00,
2013-01-15 09:43:00,8.0,3.0,-100.00,South,179,7.0,12.0,79,0.00,,,0.00,37.000000,,2013-01-15 15:43:00,
2013-01-15 09:53:00,8.0,3.0,-100.00,South,179,7.0,12.0,79,0.00,,,0.00,37.000000,,2013-01-15 15:53:00,
2013-01-15 10:03:00,8.0,3.0,-100.00,South,179,7.0,12.0,79,0.00,,,0.00,37.000000,,2013-01-15 16:03:00,
2013-01-15 10:33:00,10.0,3.0,-100.00,South,177,8.0,14.0,74,0.00,,,0.00,116.000000,,2013-01-15 16:33:00,
2013-01-15 10:43:00,10.0,3.0,-100.00,South,177,8.0,14.0,74,0.00,,,0.00,116.000000,,2013-01-15 16:43:00,
2013-01-15 10:53:00,10.0,3.0,-100.00,South,177,8.0,14.0,74,0.00,,,0.00,116.000000,,2013-01-15 16:53:00,
2013-01-15 11:03:00,10.0,3.0,-100.00,South,177,8.0,14.0,74,0.00,,,0.00,116.000000,,2013-01-15 17:03:00,
2013-01-15 11:33:00,15.0,5.0,-100.00,South,184,9.0,15.0,63,0.00,,,0.00,343.000000,,2013-01-15 17:33:00,
2013-01-15 11:43:00,15.0,5.0,-100.00,South,184,9.0,15.0,63,0.00,,,0.00,343.000000,,2013-01-15 17:43:00,
2013-01-15 11:53:00,15.0,5.0,-100.00,South,184,9.0,15.0,63,0.00,,,0.00,343.000000,,2013-01-15 17:53:00,
2013-01-15 12:03:00,15.0,5.0,-100.00,South,184,9.0,15.0,63,0.00,,,0.00,343.000000,,2013-01-15 18:03:00,
2013-01-15 12:34:00,20.0,6.0,-100.00,SSW,202,8.0,17.0,53,0.00,,,0.00,472.000000,,2013-01-15 18:34:00,
2013-01-15 12:43:00,20.0,6.0,-100.00,SSW,202,8.0,17.0,53,0.00,,,0.00,472.000000,,2013-01-15 18:43:00,
2013-01-15 12:53:00,20.0,6.0,-100.00,SSW,202,8.0,17.0,53,0.00,,,0.00,472.000000,,2013-01-15 18:53:00,
2013-01-15 13:03:00,20.0,6.0,-100.00,SSW,202,8.0,17.0,53,0.00,,,0.00,472.000000,,2013-01-15 19:03:00,
2013-01-15 13:33:00,22.0,5.0,-100.00,SSW,210,9.0,16.0,48,0.00,,,0.00,507.000000,,2013-01-15 19:33:00,
2013-01-15 13:43:00,22.0,5.0,-100.00,SSW,210,9.0,16.0,48,0.00,,,0.00,507.000000,,2013-01-15 19:43:00,
2013-01-15 13:53:00,22.0,5.0,-100.00,SSW,210,9.0,16.0,48,0.00,,,0.00,507.000000,,2013-01-15 19:53:00,
2013-01-15 14:03:00,22.0,5.0,-100.00,SSW,210,9.0,16.0,48,0.00,,,0.00,507.000000,,2013-01-15 20:03:00,
2013-01-15 14:33:00,25.0,6.0,-100.00,SSW,213,8.0,16.0,44,0.00,,,0.00,478.000000,,2013-01-15 20:33:00,
2013-01-15 14:44:00,25.0,6.0,-100.00,SSW,213,8.0,16.0,44,0.00,,,0.00,478.000000,,2013-01-15 20:44:00,
2013-01-15 14:53:00,25.0,6.0,-100.00,SSW,213,8.0,16.0,44,0.00,,,0.00,478.000000,,2013-01-15 20:53:00,
2013-01-15 15:03:00,25.0,6.0,-100.00,SSW,213,8.0,16.0,44,0.00,,,0.00,478.000000,,2013-01-15 21:03:00,
2013-01-15 15:34:00,25.0,6.0,-100.00,SSW,199,8.0,17.0,43,0.00,,,0.00,388.000000,,2013-01-15 21:34:00,
2013-01-15 15:43:00,25.0,6.0,-100.00,SSW,199,8.0,17.0,43,0.00,,,0.00,388.000000,,2013-01-15 21:43:00,
2013-01-15 15:53:00,25.0,6.0,-100.00,SSW,199,8.0,17.0,43,0.00,,,0.00,388.000000,,2013-01-15 21:53:00,
2013-01-15 16:03:00,25.0,6.0,-100.00,SSW,199,8.0,17.0,43,0.00,,,0.00,388.000000,,2013-01-15 22:03:00,
2013-01-15 16:33:00,22.0,3.0,-100.00,SSW,207,8.0,16.0,44,0.00,,,0.00,244.000000,,2013-01-15 22:33:00,
2013-01-15 16:43:00,22.0,3.0,-100.00,SSW,207,8.0,16.0,44,0.00,,,0.00,244.000000,,2013-01-15 22:43:00,
2013-01-15 16:53:00,22.0,3.0,-100.00,SSW,207,8.0,16.0,44,0.00,,,0.00,244.000000,,2013-01-15 22:53:00,
2013-01-15 17:02:00,22.0,3.0,-100.00,SSW,207,8.0,16.0,44,0.00,,,0.00,244.000000,,2013-01-15 23:02:00,
2013-01-15 17:33:00,19.0,4.0,-100.00,SSW,213,6.0,15.0,51,0.00,,,0.00,22.000000,,2013-01-15 23:33:00,
2013-01-15 17:43:00,19.0,4.0,-100.00,SSW,213,6.0,15.0,51,0.00,,,0.00,22.000000,,2013-01-15 23:43:00,
2013-01-15 17:53:00,19.0,4.0,-100.00,SSW,213,6.0,15.0,51,0.00,,,0.00,22.000000,,2013-01-15 23:53:00,
2013-01-15 18:02:00,19.0,4.0,-100.00,SSW,213,6.0,15.0,51,0.00,,,0.00,22.000000,,2013-01-16 00:02:00,
2013-01-15 18:33:00,17.0,4.0,-100.00,SSW,200,7.0,13.0,55,0.00,,,0.00,0.000000,,2013-01-16 00:33:00,
2013-01-15 18:43:00,17.0,4.0,-100.00,SSW,200,7.0,13.0,55,0.00,,,0.00,0.000000,,2013-01-16 00:43:00,
2013-01-15 18:53:00,17.0,4.0,-100.00,SSW,200,7.0,13.0,55,0.00,,,0.00,0.000000,,2013-01-16 00:53:00,
2013-01-15 19:03:00,17.0,4.0,-100.00,SSW,200,7.0,13.0,55,0.00,,,0.00,0.000000,,2013-01-16 01:03:00,
2013-01-15 19:33:00,17.0,5.0,-100.00,SSW,193,9.0,14.0,59,0.00,,,-99.99,0.000000,,2013-01-16 01:33:00,
2013-01-15 19:43:00,17.0,5.0,-100.00,SSW,193,9.0,14.0,59,0.00,,,-99.99,0.000000,,2013-01-16 01:43:00,
2013-01-15 19:53:00,17.0,5.0,-100.00,SSW,193,9.0,14.0,59,0.00,,,-99.99,0.000000,,2013-01-16 01:53:00,
2013-01-15 20:03:00,17.0,5.0,-100.00,SSW,193,9.0,14.0,59,0.00,,,-99.99,0.000000,,2013-01-16 02:03:00,
2013-01-15 20:33:00,16.0,6.0,-100.00,SSW,192,10.0,17.0,63,0.00,,,0.00,0.000000,,2013-01-16 02:33:00,
2013-01-15 20:43:00,16.0,6.0,-100.00,SSW,192,10.0,17.0,63,0.00,,,0.00,0.000000,,2013-01-16 02:43:00,
2013-01-15 20:53:00,16.0,6.0,-100.00,SSW,192,10.0,17.0,63,0.00,,,0.00,0.000000,,2013-01-16 02:53:00,
2013-01-15 21:03:00,16.0,6.0,-100.00,SSW,192,10.0,17.0,63,0.00,,,0.00,0.000000,,2013-01-16 03:03:00,
2013-01-15 21:33:00,17.0,7.0,-100.00,SSW,204,9.0,16.0,64,0.00,,,0.00,0.000000,,2013-01-16 03:33:00,
2013-01-15 21:43:00,17.0,7.0,-100.00,SSW,204,9.0,16.0,64,0.00,,,0.00,0.000000,,2013-01-16 03:43:00,
2013-01-15 21:53:00,17.0,7.0,-100.00,SSW,204,9.0,16.0,64,0.00,,,0.00,0.000000,,2013-01-16 03:53:00,
2013-01-15 22:02:00,17.0,7.0,-100.00,SSW,204,9.0,16.0,64,0.00,,,0.00,0.000000,,2013-01-16 04:02:00,
2013-01-15 22:33:00,19.0,9.0,-100.00,SSW,204,8.0,18.0,64,0.00,,,0.00,0.000000,,2013-01-16 04:33:00,
2013-01-15 22:42:00,19.0,9.0,-100.00,SSW,204,8.0,18.0,64,0.00,,,0.00,0.000000,,2013-01-16 04:42:00,
2013-01-15 22:52:00,19.0,9.0,-100.00,SSW,204,8.0,18.0,64,0.00,,,0.00,0.000000,,2013-01-16 04:52:00,
2013-01-15 23:03:00,19.0,9.0,-100.00,SSW,204,8.0,18.0,64,0.00,,,0.00,0.000000,,2013-01-16 05:03:00,
2013-01-15 23:33:00,20.0,11.0,-100.00,SSW,201,8.0,18.0,68,0.00,,,0.00,0.000000,,2013-01-16 05:33:00,
2013-01-15 23:42:00,20.0,11.0,-100.00,SSW,201,8.0,18.0,68,0.00,,,0.00,0.000000,,2013-01-16 05:42:00,
2013-01-15 23:53:00,20.0,11.0,-100.00,SSW,201,8.0,18.0,68,0.00,,,0.00,0.000000,,2013-01-16 05:53:00,